sensor_id;sensor_type;location;lat;lon;timestamp;temperature;humidity
59469;DHT22;45277;52.768;18.262;2024-03-08T00:00:24;-1.50;99.90
59469;DHT22;45277;52.768;18.262;2024-03-08T00:02:15;-1.40;99.90
59469;DHT22;45277;52.768;18.262;2024-03-08T00:03:47;-1.40;99.90
59469;DHT22;45277;52.768;18.262;2024-03-08T00:05:18;-1.30;99.90
59469;DHT22;45277;52.768;18.262;2024-03-08T00:06:49;-1.30;99.90
59469;DHT22;45277;52.768;18.262;2024-03-08T00:08:22;-1.30;99.90
59469;DHT22;45277;52.768;18.262;2024-03-08T00:09:53;-1.30;99.90
59469;DHT22;45277;52.768;18.262;2024-03-08T00:11:24;-1.20;99.90
59469;DHT22;45277;52.768;18.262;2024-03-08T00:12:57;-1.20;99.90
59469;DHT22;45277;52.768;18.262;2024-03-08T00:14:28;-1.20;99.90
59469;DHT22;45277;52.768;18.262;2024-03-08T00:16:00;-1.10;99.90
59469;DHT22;45277;52.768;18.262;2024-03-08T00:17:31;-1.20;99.90
59469;DHT22;45277;52.768;18.262;2024-03-08T00:19:03;-1.10;99.90
59469;DHT22;45277;52.768;18.262;2024-03-08T00:20:34;-1.20;99.90
59469;DHT22;45277;52.768;18.262;2024-03-08T00:22:05;-1.30;99.90
59469;DHT22;45277;52.768;18.262;2024-03-08T00:23:37;-1.30;99.90
59469;DHT22;45277;52.768;18.262;2024-03-08T00:25:09;-1.20;99.90
59469;DHT22;45277;52.768;18.262;2024-03-08T00:26:40;-1.30;99.90
59469;DHT22;45277;52.768;18.262;2024-03-08T00:28:14;-1.30;99.90
59469;DHT22;45277;52.768;18.262;2024-03-08T00:29:48;-1.30;99.90
59469;DHT22;45277;52.768;18.262;2024-03-08T00:31:19;-1.30;99.90
59469;DHT22;45277;52.768;18.262;2024-03-08T00:32:51;-1.30;99.90
59469;DHT22;45277;52.768;18.262;2024-03-08T00:34:22;-1.30;99.90
59469;DHT22;45277;52.768;18.262;2024-03-08T00:35:54;-1.30;99.90
59469;DHT22;45277;52.768;18.262;2024-03-08T00:37:25;-1.30;99.90
59469;DHT22;45277;52.768;18.262;2024-03-08T00:38:57;-1.40;99.90
59469;DHT22;45277;52.768;18.262;2024-03-08T00:40:29;-1.50;99.90
59469;DHT22;45277;52.768;18.262;2024-03-08T00:42:00;-1.60;99.90
59469;DHT22;45277;52.768;18.262;2024-03-08T00:43:31;-1.60;99.90
59469;DHT22;45277;52.768;18.262;2024-03-08T00:45:04;-1.60;99.90
59469;DHT22;45277;52.768;18.262;2024-03-08T00:46:35;-1.70;99.90
59469;DHT22;45277;52.768;18.262;2024-03-08T00:48:06;-1.80;99.90
59469;DHT22;45277;52.768;18.262;2024-03-08T00:49:38;-1.90;99.90
59469;DHT22;45277;52.768;18.262;2024-03-08T00:51:12;-1.90;99.90
59469;DHT22;45277;52.768;18.262;2024-03-08T00:52:43;-1.90;99.90
59469;DHT22;45277;52.768;18.262;2024-03-08T00:54:15;-1.90;99.90
59469;DHT22;45277;52.768;18.262;2024-03-08T00:55:47;-1.90;99.90
59469;DHT22;45277;52.768;18.262;2024-03-08T00:57:18;-1.80;99.90
59469;DHT22;45277;52.768;18.262;2024-03-08T00:58:50;-1.80;99.90
59469;DHT22;45277;52.768;18.262;2024-03-08T01:00:22;-1.70;99.90
59469;DHT22;45277;52.768;18.262;2024-03-08T01:01:53;-1.60;99.90
59469;DHT22;45277;52.768;18.262;2024-03-08T01:03:25;-1.80;99.90
59469;DHT22;45277;52.768;18.262;2024-03-08T01:04:56;-1.80;99.90
59469;DHT22;45277;52.768;18.262;2024-03-08T01:06:27;-1.90;99.90
59469;DHT22;45277;52.768;18.262;2024-03-08T01:07:59;-1.90;99.90
59469;DHT22;45277;52.768;18.262;2024-03-08T01:09:30;-2.00;99.90
59469;DHT22;45277;52.768;18.262;2024-03-08T01:11:02;-2.10;99.90
59469;DHT22;45277;52.768;18.262;2024-03-08T01:12:34;-2.10;99.90
59469;DHT22;45277;52.768;18.262;2024-03-08T01:14:06;-2.10;99.90
59469;DHT22;45277;52.768;18.262;2024-03-08T01:15:37;-2.10;99.90
59469;DHT22;45277;52.768;18.262;2024-03-08T01:17:12;-2.20;99.90
59469;DHT22;45277;52.768;18.262;2024-03-08T01:18:44;-2.10;99.90
59469;DHT22;45277;52.768;18.262;2024-03-08T01:20:15;-2.10;99.90
59469;DHT22;45277;52.768;18.262;2024-03-08T01:21:47;-2.20;99.90
59469;DHT22;45277;52.768;18.262;2024-03-08T01:23:18;-2.20;99.90
59469;DHT22;45277;52.768;18.262;2024-03-08T01:24:49;-2.10;99.90
59469;DHT22;45277;52.768;18.262;2024-03-08T01:26:21;-2.10;99.90
59469;DHT22;45277;52.768;18.262;2024-03-08T01:27:53;-2.10;99.90
59469;DHT22;45277;52.768;18.262;2024-03-08T01:29:24;-2.10;99.90
59469;DHT22;45277;52.768;18.262;2024-03-08T01:30:56;-2.10;99.90
59469;DHT22;45277;52.768;18.262;2024-03-08T01:32:27;-2.00;99.90
59469;DHT22;45277;52.768;18.262;2024-03-08T01:33:59;-1.90;99.90
59469;DHT22;45277;52.768;18.262;2024-03-08T01:35:30;-1.70;99.90
59469;DHT22;45277;52.768;18.262;2024-03-08T01:37:02;-1.70;99.90
59469;DHT22;45277;52.768;18.262;2024-03-08T01:38:33;-1.70;99.90
59469;DHT22;45277;52.768;18.262;2024-03-08T01:40:05;-1.70;99.90
59469;DHT22;45277;52.768;18.262;2024-03-08T01:41:38;-1.70;99.90
59469;DHT22;45277;52.768;18.262;2024-03-08T01:43:21;-1.70;99.90
59469;DHT22;45277;52.768;18.262;2024-03-08T01:44:54;-1.70;99.90
59469;DHT22;45277;52.768;18.262;2024-03-08T01:46:25;-1.80;99.90
59469;DHT22;45277;52.768;18.262;2024-03-08T01:48:00;-1.90;99.90
59469;DHT22;45277;52.768;18.262;2024-03-08T01:49:31;-2.10;99.90
59469;DHT22;45277;52.768;18.262;2024-03-08T01:51:03;-2.20;99.90
59469;DHT22;45277;52.768;18.262;2024-03-08T01:52:36;-2.30;99.90
59469;DHT22;45277;52.768;18.262;2024-03-08T01:54:08;-2.50;99.90
59469;DHT22;45277;52.768;18.262;2024-03-08T01:55:45;-2.60;99.90
59469;DHT22;45277;52.768;18.262;2024-03-08T01:57:17;-2.70;99.90
59469;DHT22;45277;52.768;18.262;2024-03-08T01:58:49;-2.80;99.90
59469;DHT22;45277;52.768;18.262;2024-03-08T02:00:21;-2.90;99.90
59469;DHT22;45277;52.768;18.262;2024-03-08T02:02:00;-3.00;99.90
59469;DHT22;45277;52.768;18.262;2024-03-08T02:03:32;-3.00;99.90
59469;DHT22;45277;52.768;18.262;2024-03-08T02:05:05;-3.10;99.90
59469;DHT22;45277;52.768;18.262;2024-03-08T02:06:37;-3.20;99.90
59469;DHT22;45277;52.768;18.262;2024-03-08T02:08:10;-3.20;99.90
59469;DHT22;45277;52.768;18.262;2024-03-08T02:09:45;-3.20;99.90
59469;DHT22;45277;52.768;18.262;2024-03-08T02:11:16;-3.30;99.90
59469;DHT22;45277;52.768;18.262;2024-03-08T02:12:49;-3.30;99.90
59469;DHT22;45277;52.768;18.262;2024-03-08T02:14:21;-3.30;99.90
59469;DHT22;45277;52.768;18.262;2024-03-08T02:16:00;-3.30;99.90
59469;DHT22;45277;52.768;18.262;2024-03-08T02:17:32;-3.30;99.90
59469;DHT22;45277;52.768;18.262;2024-03-08T02:19:04;-3.40;99.90
59469;DHT22;45277;52.768;18.262;2024-03-08T02:20:35;-3.40;99.90
59469;DHT22;45277;52.768;18.262;2024-03-08T02:22:07;-3.40;99.90
59469;DHT22;45277;52.768;18.262;2024-03-08T02:23:38;-3.40;99.90
59469;DHT22;45277;52.768;18.262;2024-03-08T02:25:11;-3.40;99.90
59469;DHT22;45277;52.768;18.262;2024-03-08T02:26:43;-3.30;99.90
59469;DHT22;45277;52.768;18.262;2024-03-08T02:28:14;-3.20;99.90
59469;DHT22;45277;52.768;18.262;2024-03-08T02:29:46;-3.00;99.90
59469;DHT22;45277;52.768;18.262;2024-03-08T02:31:18;-2.90;99.90
59469;DHT22;45277;52.768;18.262;2024-03-08T02:32:49;-2.70;99.90
59469;DHT22;45277;52.768;18.262;2024-03-08T02:34:20;-2.70;99.90
59469;DHT22;45277;52.768;18.262;2024-03-08T02:35:52;-2.60;99.90
59469;DHT22;45277;52.768;18.262;2024-03-08T02:37:23;-2.60;99.90
59469;DHT22;45277;52.768;18.262;2024-03-08T02:38:54;-2.60;99.90
59469;DHT22;45277;52.768;18.262;2024-03-08T02:40:26;-2.70;99.90
59469;DHT22;45277;52.768;18.262;2024-03-08T02:41:58;-2.70;99.90
59469;DHT22;45277;52.768;18.262;2024-03-08T02:43:29;-2.90;99.90
59469;DHT22;45277;52.768;18.262;2024-03-08T02:45:01;-3.00;99.90
59469;DHT22;45277;52.768;18.262;2024-03-08T02:46:32;-3.20;99.90
59469;DHT22;45277;52.768;18.262;2024-03-08T02:48:04;-3.30;99.90
59469;DHT22;45277;52.768;18.262;2024-03-08T02:49:36;-3.40;99.90
59469;DHT22;45277;52.768;18.262;2024-03-08T02:51:08;-3.50;99.90
59469;DHT22;45277;52.768;18.262;2024-03-08T02:52:42;-3.60;99.90
59469;DHT22;45277;52.768;18.262;2024-03-08T02:54:13;-3.70;99.90
59469;DHT22;45277;52.768;18.262;2024-03-08T02:55:45;-3.80;99.90
59469;DHT22;45277;52.768;18.262;2024-03-08T02:57:17;-3.80;99.90
59469;DHT22;45277;52.768;18.262;2024-03-08T02:58:49;-3.90;99.90
59469;DHT22;45277;52.768;18.262;2024-03-08T03:00:21;-3.90;99.90
59469;DHT22;45277;52.768;18.262;2024-03-08T03:01:53;-3.90;99.90
59469;DHT22;45277;52.768;18.262;2024-03-08T03:03:25;-3.90;99.90
59469;DHT22;45277;52.768;18.262;2024-03-08T03:04:57;-3.90;99.90
59469;DHT22;45277;52.768;18.262;2024-03-08T03:06:29;-4.00;99.90
59469;DHT22;45277;52.768;18.262;2024-03-08T03:08:01;-3.90;99.90
59469;DHT22;45277;52.768;18.262;2024-03-08T03:09:32;-4.00;99.90
59469;DHT22;45277;52.768;18.262;2024-03-08T03:11:03;-4.00;99.90
59469;DHT22;45277;52.768;18.262;2024-03-08T03:12:35;-4.00;99.90
59469;DHT22;45277;52.768;18.262;2024-03-08T03:14:06;-3.90;99.90
59469;DHT22;45277;52.768;18.262;2024-03-08T03:15:38;-4.00;99.90
59469;DHT22;45277;52.768;18.262;2024-03-08T03:17:09;-4.00;99.90
59469;DHT22;45277;52.768;18.262;2024-03-08T03:18:41;-4.00;99.90
59469;DHT22;45277;52.768;18.262;2024-03-08T03:20:12;-4.00;99.90
59469;DHT22;45277;52.768;18.262;2024-03-08T03:21:54;-3.90;99.90
59469;DHT22;45277;52.768;18.262;2024-03-08T03:23:25;-3.90;99.90
59469;DHT22;45277;52.768;18.262;2024-03-08T03:24:57;-3.80;99.90
59469;DHT22;45277;52.768;18.262;2024-03-08T03:26:30;-3.80;99.90
59469;DHT22;45277;52.768;18.262;2024-03-08T03:28:02;-3.80;99.90
59469;DHT22;45277;52.768;18.262;2024-03-08T03:29:33;-3.70;99.90
59469;DHT22;45277;52.768;18.262;2024-03-08T03:31:07;-3.80;99.90
59469;DHT22;45277;52.768;18.262;2024-03-08T03:32:38;-3.70;99.90
59469;DHT22;45277;52.768;18.262;2024-03-08T03:34:17;-3.70;99.90
59469;DHT22;45277;52.768;18.262;2024-03-08T03:35:49;-3.70;99.90
59469;DHT22;45277;52.768;18.262;2024-03-08T03:37:22;-3.70;99.90
59469;DHT22;45277;52.768;18.262;2024-03-08T03:38:54;-3.70;99.90
59469;DHT22;45277;52.768;18.262;2024-03-08T03:40:40;-3.80;99.90
59469;DHT22;45277;52.768;18.262;2024-03-08T03:42:12;-3.80;99.90
59469;DHT22;45277;52.768;18.262;2024-03-08T03:43:43;-3.80;99.90
59469;DHT22;45277;52.768;18.262;2024-03-08T03:45:15;-3.90;99.90
59469;DHT22;45277;52.768;18.262;2024-03-08T03:46:51;-4.00;99.90
59469;DHT22;45277;52.768;18.262;2024-03-08T03:48:23;-4.00;99.90
59469;DHT22;45277;52.768;18.262;2024-03-08T03:49:54;-4.10;99.90
59469;DHT22;45277;52.768;18.262;2024-03-08T03:51:26;-4.10;99.90
59469;DHT22;45277;52.768;18.262;2024-03-08T03:52:58;-4.20;99.90
59469;DHT22;45277;52.768;18.262;2024-03-08T03:54:30;-4.20;99.90
59469;DHT22;45277;52.768;18.262;2024-03-08T03:56:01;-4.30;99.90
59469;DHT22;45277;52.768;18.262;2024-03-08T03:57:33;-4.30;99.90
59469;DHT22;45277;52.768;18.262;2024-03-08T03:59:04;-4.30;99.90
59469;DHT22;45277;52.768;18.262;2024-03-08T04:00:35;-4.30;99.90
59469;DHT22;45277;52.768;18.262;2024-03-08T04:02:07;-4.30;99.90
59469;DHT22;45277;52.768;18.262;2024-03-08T04:03:41;-4.30;99.90
59469;DHT22;45277;52.768;18.262;2024-03-08T04:05:14;-4.30;99.90
59469;DHT22;45277;52.768;18.262;2024-03-08T04:06:45;-4.30;99.90
59469;DHT22;45277;52.768;18.262;2024-03-08T04:08:17;-4.40;99.90
59469;DHT22;45277;52.768;18.262;2024-03-08T04:09:48;-4.40;99.90
59469;DHT22;45277;52.768;18.262;2024-03-08T04:11:20;-4.50;99.90
59469;DHT22;45277;52.768;18.262;2024-03-08T04:12:52;-4.50;99.90
59469;DHT22;45277;52.768;18.262;2024-03-08T04:14:23;-4.50;99.90
59469;DHT22;45277;52.768;18.262;2024-03-08T04:15:55;-4.50;99.90
59469;DHT22;45277;52.768;18.262;2024-03-08T04:17:26;-4.60;99.90
59469;DHT22;45277;52.768;18.262;2024-03-08T04:18:58;-4.60;99.90
59469;DHT22;45277;52.768;18.262;2024-03-08T04:20:30;-4.50;99.90
59469;DHT22;45277;52.768;18.262;2024-03-08T04:22:01;-4.40;99.90
59469;DHT22;45277;52.768;18.262;2024-03-08T04:23:34;-4.30;99.90
59469;DHT22;45277;52.768;18.262;2024-03-08T04:25:08;-4.30;99.90
59469;DHT22;45277;52.768;18.262;2024-03-08T04:26:40;-4.20;99.90
59469;DHT22;45277;52.768;18.262;2024-03-08T04:28:12;-4.20;99.90
59469;DHT22;45277;52.768;18.262;2024-03-08T04:29:43;-4.00;99.90
59469;DHT22;45277;52.768;18.262;2024-03-08T04:31:15;-4.00;99.90
59469;DHT22;45277;52.768;18.262;2024-03-08T04:32:46;-4.00;99.90
59469;DHT22;45277;52.768;18.262;2024-03-08T04:34:18;-4.00;99.90
59469;DHT22;45277;52.768;18.262;2024-03-08T04:35:50;-3.90;99.90
59469;DHT22;45277;52.768;18.262;2024-03-08T04:37:22;-3.90;99.90
59469;DHT22;45277;52.768;18.262;2024-03-08T04:38:53;-3.90;99.90
59469;DHT22;45277;52.768;18.262;2024-03-08T04:40:25;-3.90;99.90
59469;DHT22;45277;52.768;18.262;2024-03-08T04:42:02;-3.90;99.90
59469;DHT22;45277;52.768;18.262;2024-03-08T04:43:40;-3.90;99.90
59469;DHT22;45277;52.768;18.262;2024-03-08T04:45:12;-3.80;99.90
59469;DHT22;45277;52.768;18.262;2024-03-08T04:46:43;-3.80;99.90
59469;DHT22;45277;52.768;18.262;2024-03-08T04:48:15;-3.80;99.90
59469;DHT22;45277;52.768;18.262;2024-03-08T04:49:46;-3.90;99.90
59469;DHT22;45277;52.768;18.262;2024-03-08T04:51:18;-3.90;99.90
59469;DHT22;45277;52.768;18.262;2024-03-08T04:52:50;-3.90;99.90
59469;DHT22;45277;52.768;18.262;2024-03-08T04:54:22;-3.90;99.90
59469;DHT22;45277;52.768;18.262;2024-03-08T04:55:53;-3.90;99.90
59469;DHT22;45277;52.768;18.262;2024-03-08T04:57:24;-3.90;99.90
59469;DHT22;45277;52.768;18.262;2024-03-08T04:58:57;-4.00;99.90
59469;DHT22;45277;52.768;18.262;2024-03-08T05:00:28;-4.00;99.90
59469;DHT22;45277;52.768;18.262;2024-03-08T05:01:59;-4.00;99.90
59469;DHT22;45277;52.768;18.262;2024-03-08T05:03:31;-4.10;99.90
59469;DHT22;45277;52.768;18.262;2024-03-08T05:05:03;-4.20;99.90
59469;DHT22;45277;52.768;18.262;2024-03-08T05:06:37;-4.20;99.90
59469;DHT22;45277;52.768;18.262;2024-03-08T05:08:08;-4.20;99.90
59469;DHT22;45277;52.768;18.262;2024-03-08T05:09:40;-4.20;99.90
59469;DHT22;45277;52.768;18.262;2024-03-08T05:11:12;-4.20;99.90
59469;DHT22;45277;52.768;18.262;2024-03-08T05:12:45;-4.20;99.90
59469;DHT22;45277;52.768;18.262;2024-03-08T05:14:17;-4.20;99.90
59469;DHT22;45277;52.768;18.262;2024-03-08T05:15:50;-4.20;99.90
59469;DHT22;45277;52.768;18.262;2024-03-08T05:17:22;-4.30;99.90
59469;DHT22;45277;52.768;18.262;2024-03-08T05:18:55;-4.30;99.90
59469;DHT22;45277;52.768;18.262;2024-03-08T05:20:27;-4.30;99.90
59469;DHT22;45277;52.768;18.262;2024-03-08T05:21:59;-4.40;99.90
59469;DHT22;45277;52.768;18.262;2024-03-08T05:23:30;-4.30;99.90
59469;DHT22;45277;52.768;18.262;2024-03-08T05:25:02;-4.30;99.90
59469;DHT22;45277;52.768;18.262;2024-03-08T05:26:33;-4.30;99.90
59469;DHT22;45277;52.768;18.262;2024-03-08T05:28:05;-4.30;99.90
59469;DHT22;45277;52.768;18.262;2024-03-08T05:29:36;-4.30;99.90
59469;DHT22;45277;52.768;18.262;2024-03-08T05:31:09;-4.30;99.90
59469;DHT22;45277;52.768;18.262;2024-03-08T05:32:41;-4.30;99.90
59469;DHT22;45277;52.768;18.262;2024-03-08T05:34:16;-4.20;99.90
59469;DHT22;45277;52.768;18.262;2024-03-08T05:35:47;-4.20;99.90
59469;DHT22;45277;52.768;18.262;2024-03-08T05:37:19;-4.20;99.90
59469;DHT22;45277;52.768;18.262;2024-03-08T05:38:51;-4.10;99.90
59469;DHT22;45277;52.768;18.262;2024-03-08T05:40:23;-4.10;99.90
59469;DHT22;45277;52.768;18.262;2024-03-08T05:41:55;-4.10;99.90
59469;DHT22;45277;52.768;18.262;2024-03-08T05:43:26;-4.00;99.90
59469;DHT22;45277;52.768;18.262;2024-03-08T05:44:58;-4.10;99.90
59469;DHT22;45277;52.768;18.262;2024-03-08T05:46:29;-4.10;99.90
59469;DHT22;45277;52.768;18.262;2024-03-08T05:48:01;-4.10;99.90
59469;DHT22;45277;52.768;18.262;2024-03-08T05:49:32;-4.10;99.90
59469;DHT22;45277;52.768;18.262;2024-03-08T05:51:05;-4.10;99.90
59469;DHT22;45277;52.768;18.262;2024-03-08T05:52:36;-4.00;99.90
59469;DHT22;45277;52.768;18.262;2024-03-08T05:54:11;-4.00;99.90
59469;DHT22;45277;52.768;18.262;2024-03-08T05:55:42;-3.90;99.90
59469;DHT22;45277;52.768;18.262;2024-03-08T05:57:14;-3.90;99.90
59469;DHT22;45277;52.768;18.262;2024-03-08T05:58:46;-3.90;99.90
59469;DHT22;45277;52.768;18.262;2024-03-08T06:00:17;-3.90;99.90
59469;DHT22;45277;52.768;18.262;2024-03-08T06:01:50;-3.80;99.90
59469;DHT22;45277;52.768;18.262;2024-03-08T06:03:21;-3.80;99.90
59469;DHT22;45277;52.768;18.262;2024-03-08T06:04:53;-3.70;99.90
59469;DHT22;45277;52.768;18.262;2024-03-08T06:06:24;-3.60;99.90
59469;DHT22;45277;52.768;18.262;2024-03-08T06:07:56;-3.50;99.90
59469;DHT22;45277;52.768;18.262;2024-03-08T06:09:27;-3.40;99.90
59469;DHT22;45277;52.768;18.262;2024-03-08T06:10:59;-3.30;99.90
59469;DHT22;45277;52.768;18.262;2024-03-08T06:12:30;-3.20;99.90
59469;DHT22;45277;52.768;18.262;2024-03-08T06:14:04;-3.20;99.90
59469;DHT22;45277;52.768;18.262;2024-03-08T06:15:36;-3.20;99.90
59469;DHT22;45277;52.768;18.262;2024-03-08T06:17:08;-3.10;99.90
59469;DHT22;45277;52.768;18.262;2024-03-08T06:18:39;-3.10;99.90
59469;DHT22;45277;52.768;18.262;2024-03-08T06:20:12;-3.10;99.90
59469;DHT22;45277;52.768;18.262;2024-03-08T06:21:44;-3.00;99.90
59469;DHT22;45277;52.768;18.262;2024-03-08T06:23:16;-3.00;99.90
59469;DHT22;45277;52.768;18.262;2024-03-08T06:24:48;-2.90;99.90
59469;DHT22;45277;52.768;18.262;2024-03-08T06:26:21;-2.90;99.90
59469;DHT22;45277;52.768;18.262;2024-03-08T06:27:53;-2.80;99.90
59469;DHT22;45277;52.768;18.262;2024-03-08T06:29:24;-2.70;99.90
59469;DHT22;45277;52.768;18.262;2024-03-08T06:30:55;-2.70;99.90
59469;DHT22;45277;52.768;18.262;2024-03-08T06:32:27;-2.60;99.90
59469;DHT22;45277;52.768;18.262;2024-03-08T06:33:58;-2.50;99.90
59469;DHT22;45277;52.768;18.262;2024-03-08T06:35:30;-2.50;99.90
59469;DHT22;45277;52.768;18.262;2024-03-08T06:37:02;-2.40;99.90
59469;DHT22;45277;52.768;18.262;2024-03-08T06:38:34;-2.40;99.90
59469;DHT22;45277;52.768;18.262;2024-03-08T06:40:06;-2.30;99.90
59469;DHT22;45277;52.768;18.262;2024-03-08T06:41:39;-2.30;99.90
59469;DHT22;45277;52.768;18.262;2024-03-08T06:43:11;-2.20;99.90
59469;DHT22;45277;52.768;18.262;2024-03-08T06:44:45;-2.20;99.90
59469;DHT22;45277;52.768;18.262;2024-03-08T06:46:20;-2.10;99.90
59469;DHT22;45277;52.768;18.262;2024-03-08T06:47:51;-2.10;99.90
59469;DHT22;45277;52.768;18.262;2024-03-08T06:49:23;-2.10;99.90
59469;DHT22;45277;52.768;18.262;2024-03-08T06:50:54;-2.00;99.90
59469;DHT22;45277;52.768;18.262;2024-03-08T06:52:27;-2.00;99.90
59469;DHT22;45277;52.768;18.262;2024-03-08T06:53:58;-2.00;99.90
59469;DHT22;45277;52.768;18.262;2024-03-08T06:55:30;-1.90;99.90
59469;DHT22;45277;52.768;18.262;2024-03-08T06:57:02;-1.90;99.90
59469;DHT22;45277;52.768;18.262;2024-03-08T06:58:34;-1.90;99.90
59469;DHT22;45277;52.768;18.262;2024-03-08T07:00:07;-1.80;99.90
59469;DHT22;45277;52.768;18.262;2024-03-08T07:01:41;-1.70;99.90
59469;DHT22;45277;52.768;18.262;2024-03-08T07:03:12;-1.60;99.90
59469;DHT22;45277;52.768;18.262;2024-03-08T07:04:48;-1.60;99.90
59469;DHT22;45277;52.768;18.262;2024-03-08T07:06:21;-1.50;99.90
59469;DHT22;45277;52.768;18.262;2024-03-08T07:07:53;-1.40;99.90
59469;DHT22;45277;52.768;18.262;2024-03-08T07:09:25;-1.30;99.90
59469;DHT22;45277;52.768;18.262;2024-03-08T07:10:57;-1.30;99.90
59469;DHT22;45277;52.768;18.262;2024-03-08T07:12:29;-1.20;99.90
59469;DHT22;45277;52.768;18.262;2024-03-08T07:14:00;-1.10;99.90
59469;DHT22;45277;52.768;18.262;2024-03-08T07:15:36;-1.10;99.90
59469;DHT22;45277;52.768;18.262;2024-03-08T07:17:08;-0.90;99.90
59469;DHT22;45277;52.768;18.262;2024-03-08T07:18:42;-0.90;99.90
59469;DHT22;45277;52.768;18.262;2024-03-08T07:20:17;-0.70;99.90
59469;DHT22;45277;52.768;18.262;2024-03-08T07:21:50;-0.60;99.90
59469;DHT22;45277;52.768;18.262;2024-03-08T07:23:21;-0.60;99.90
59469;DHT22;45277;52.768;18.262;2024-03-08T07:25:25;-0.50;99.90
59469;DHT22;45277;52.768;18.262;2024-03-08T07:27:00;-0.40;99.90
59469;DHT22;45277;52.768;18.262;2024-03-08T07:28:31;-0.30;99.90
59469;DHT22;45277;52.768;18.262;2024-03-08T07:30:03;-0.30;99.90
59469;DHT22;45277;52.768;18.262;2024-03-08T07:31:35;-0.20;99.90
59469;DHT22;45277;52.768;18.262;2024-03-08T07:33:21;-0.20;99.90
59469;DHT22;45277;52.768;18.262;2024-03-08T07:34:54;-0.10;99.90
59469;DHT22;45277;52.768;18.262;2024-03-08T07:36:26;0.00;99.90
59469;DHT22;45277;52.768;18.262;2024-03-08T07:37:57;0.10;99.90
59469;DHT22;45277;52.768;18.262;2024-03-08T07:39:31;0.20;99.90
59469;DHT22;45277;52.768;18.262;2024-03-08T07:41:03;0.20;99.90
59469;DHT22;45277;52.768;18.262;2024-03-08T07:42:34;0.30;99.90
59469;DHT22;45277;52.768;18.262;2024-03-08T07:44:07;0.30;99.90
59469;DHT22;45277;52.768;18.262;2024-03-08T07:45:38;0.30;99.90
59469;DHT22;45277;52.768;18.262;2024-03-08T07:47:10;0.40;99.90
59469;DHT22;45277;52.768;18.262;2024-03-08T07:48:41;0.50;99.90
59469;DHT22;45277;52.768;18.262;2024-03-08T07:50:13;0.50;99.90
59469;DHT22;45277;52.768;18.262;2024-03-08T07:51:47;0.60;99.90
59469;DHT22;45277;52.768;18.262;2024-03-08T07:53:20;0.60;99.90
59469;DHT22;45277;52.768;18.262;2024-03-08T07:54:51;0.60;99.90
59469;DHT22;45277;52.768;18.262;2024-03-08T07:56:22;0.70;99.90
59469;DHT22;45277;52.768;18.262;2024-03-08T07:57:55;0.70;99.90
59469;DHT22;45277;52.768;18.262;2024-03-08T07:59:26;0.70;99.90
59469;DHT22;45277;52.768;18.262;2024-03-08T08:00:57;0.80;99.90
59469;DHT22;45277;52.768;18.262;2024-03-08T08:02:29;0.90;99.90
59469;DHT22;45277;52.768;18.262;2024-03-08T08:04:01;0.90;99.90
59469;DHT22;45277;52.768;18.262;2024-03-08T08:05:33;1.00;99.90
59469;DHT22;45277;52.768;18.262;2024-03-08T08:07:06;1.00;99.90
59469;DHT22;45277;52.768;18.262;2024-03-08T08:08:38;1.10;99.90
59469;DHT22;45277;52.768;18.262;2024-03-08T08:10:09;1.20;99.90
59469;DHT22;45277;52.768;18.262;2024-03-08T08:11:47;1.30;99.90
59469;DHT22;45277;52.768;18.262;2024-03-08T08:13:19;1.30;99.90
59469;DHT22;45277;52.768;18.262;2024-03-08T08:14:50;1.40;99.90
59469;DHT22;45277;52.768;18.262;2024-03-08T08:16:24;1.50;99.90
59469;DHT22;45277;52.768;18.262;2024-03-08T08:17:57;1.50;99.90
59469;DHT22;45277;52.768;18.262;2024-03-08T08:19:28;1.60;99.90
59469;DHT22;45277;52.768;18.262;2024-03-08T08:21:00;1.70;99.90
59469;DHT22;45277;52.768;18.262;2024-03-08T08:22:31;1.80;99.90
59469;DHT22;45277;52.768;18.262;2024-03-08T08:24:03;1.90;99.90
59469;DHT22;45277;52.768;18.262;2024-03-08T08:25:35;2.00;99.90
59469;DHT22;45277;52.768;18.262;2024-03-08T08:27:06;2.10;99.90
59469;DHT22;45277;52.768;18.262;2024-03-08T08:28:37;2.20;99.90
59469;DHT22;45277;52.768;18.262;2024-03-08T08:30:10;2.30;99.90
59469;DHT22;45277;52.768;18.262;2024-03-08T08:31:42;2.40;99.90
59469;DHT22;45277;52.768;18.262;2024-03-08T08:33:13;2.60;99.90
59469;DHT22;45277;52.768;18.262;2024-03-08T08:34:45;2.70;99.90
59469;DHT22;45277;52.768;18.262;2024-03-08T08:36:17;2.70;99.90
59469;DHT22;45277;52.768;18.262;2024-03-08T08:37:49;2.80;99.90
59469;DHT22;45277;52.768;18.262;2024-03-08T08:39:21;2.80;99.90
59469;DHT22;45277;52.768;18.262;2024-03-08T08:40:53;2.90;99.90
59469;DHT22;45277;52.768;18.262;2024-03-08T08:42:24;3.00;99.90
59469;DHT22;45277;52.768;18.262;2024-03-08T08:43:56;3.10;99.90
59469;DHT22;45277;52.768;18.262;2024-03-08T08:45:27;3.20;99.90
59469;DHT22;45277;52.768;18.262;2024-03-08T08:46:59;3.20;99.90
59469;DHT22;45277;52.768;18.262;2024-03-08T08:48:30;3.30;99.90
59469;DHT22;45277;52.768;18.262;2024-03-08T08:50:02;3.40;99.90
59469;DHT22;45277;52.768;18.262;2024-03-08T08:51:35;3.50;99.90
59469;DHT22;45277;52.768;18.262;2024-03-08T08:53:07;3.50;99.90
59469;DHT22;45277;52.768;18.262;2024-03-08T08:54:39;3.60;99.90
59469;DHT22;45277;52.768;18.262;2024-03-08T08:56:10;3.70;99.90
59469;DHT22;45277;52.768;18.262;2024-03-08T08:57:44;3.70;99.90
59469;DHT22;45277;52.768;18.262;2024-03-08T08:59:15;3.90;99.90
59469;DHT22;45277;52.768;18.262;2024-03-08T09:00:50;3.90;99.90
59469;DHT22;45277;52.768;18.262;2024-03-08T09:02:21;4.00;99.90
59469;DHT22;45277;52.768;18.262;2024-03-08T09:03:52;4.20;99.90
59469;DHT22;45277;52.768;18.262;2024-03-08T09:05:25;4.30;99.90
59469;DHT22;45277;52.768;18.262;2024-03-08T09:06:57;4.40;99.90
59469;DHT22;45277;52.768;18.262;2024-03-08T09:08:28;4.50;99.90
59469;DHT22;45277;52.768;18.262;2024-03-08T09:10:00;4.50;99.90
59469;DHT22;45277;52.768;18.262;2024-03-08T09:11:32;4.60;99.90
59469;DHT22;45277;52.768;18.262;2024-03-08T09:13:03;4.70;99.90
59469;DHT22;45277;52.768;18.262;2024-03-08T09:14:35;4.80;99.90
59469;DHT22;45277;52.768;18.262;2024-03-08T09:16:06;4.80;99.90
59469;DHT22;45277;52.768;18.262;2024-03-08T09:17:38;4.90;99.90
59469;DHT22;45277;52.768;18.262;2024-03-08T09:19:12;5.00;99.90
59469;DHT22;45277;52.768;18.262;2024-03-08T09:20:43;5.10;99.90
59469;DHT22;45277;52.768;18.262;2024-03-08T09:22:15;5.10;99.90
59469;DHT22;45277;52.768;18.262;2024-03-08T09:23:46;5.20;99.90
59469;DHT22;45277;52.768;18.262;2024-03-08T09:25:18;5.20;99.90
59469;DHT22;45277;52.768;18.262;2024-03-08T09:26:49;5.30;99.90
59469;DHT22;45277;52.768;18.262;2024-03-08T09:28:20;5.40;99.90
59469;DHT22;45277;52.768;18.262;2024-03-08T09:29:52;5.50;99.90
59469;DHT22;45277;52.768;18.262;2024-03-08T09:31:23;5.50;99.90
59469;DHT22;45277;52.768;18.262;2024-03-08T09:32:54;5.50;99.90
59469;DHT22;45277;52.768;18.262;2024-03-08T09:34:26;5.60;99.90
59469;DHT22;45277;52.768;18.262;2024-03-08T09:35:57;5.70;99.90